San Diego, California
Traffic Map
Current Weather Conditions
San Diego, California
Clear
Clear
70°
Feels Like: 70°
Wind Chill: 70° Ceiling: Unl
Heat Index: 70° Visibility: 10mi
Dew Point: 54° Wind: 7mph
Humidity: 57% Direction: 300° (WNW)
Pressure: 29.95in Gusts: 0mph
Raw Report DataKSAN 190051Z 30006KT 10SM CLR 21/12 A2995 RMK AO2 SLP142 T02110122
Traffic Incident Summary
Active as of:
Severity:
Category:
InformationThere was an issue retrieving the traffic information for this location. Please try a different location or try again shortly.
Advertisements
Track Severe Weather on mobile